createdAt,value
2018-08-30T00:00:47.375Z,57.90
2018-08-30T00:03:16.397Z,57.60
2018-08-30T00:05:44.641Z,57.50
2018-08-30T00:08:13.665Z,58.10
2018-08-30T00:10:41.999Z,58.10
2018-08-30T00:13:10.235Z,58.40
2018-08-30T00:15:38.506Z,58.60
2018-08-30T00:18:06.756Z,58.00
2018-08-30T00:20:35.003Z,57.40
2018-08-30T00:23:04.017Z,57.50
2018-08-30T00:25:32.281Z,57.50
2018-08-30T00:28:01.294Z,57.60
2018-08-30T00:30:29.550Z,57.60
2018-08-30T00:32:57.794Z,57.60
2018-08-30T00:35:26.069Z,57.50
2018-08-30T00:37:54.307Z,57.40
2018-08-30T00:40:22.547Z,57.50
2018-08-30T00:42:51.878Z,58.40
2018-08-30T00:45:20.316Z,58.30
2018-08-30T00:47:49.318Z,59.60
2018-08-30T00:50:17.557Z,58.80
2018-08-30T00:52:45.842Z,59.00
2018-08-30T00:55:14.112Z,58.90
2018-08-30T00:57:42.349Z,58.70
2018-08-30T01:00:10.606Z,58.10
2018-08-30T01:02:38.870Z,57.80
2018-08-30T01:05:07.134Z,58.20
2018-08-30T01:07:36.142Z,57.90
2018-08-30T01:10:04.404Z,57.90
2018-08-30T01:12:33.446Z,59.10
2018-08-30T01:15:01.684Z,59.10
2018-08-30T01:17:30.701Z,59.00
2018-08-30T01:19:58.945Z,58.90
2018-08-30T01:22:27.214Z,58.80
2018-08-30T01:24:55.573Z,59.30
2018-08-30T01:27:23.811Z,59.30
2018-08-30T01:29:52.071Z,58.90
2018-08-30T01:32:20.326Z,58.70
2018-08-30T01:34:48.575Z,58.60
2018-08-30T01:37:17.617Z,58.50
2018-08-30T01:39:45.871Z,58.40
2018-08-30T01:42:14.114Z,58.90
2018-08-30T01:44:42.494Z,58.70
2018-08-30T01:47:10.692Z,58.10
2018-08-30T01:49:38.979Z,58.00
2018-08-30T01:52:07.240Z,58.10
2018-08-30T01:54:36.250Z,58.20
2018-08-30T01:57:04.508Z,58.10
2018-08-30T01:59:32.786Z,57.70
2018-08-30T02:02:01.793Z,58.20
2018-08-30T02:04:30.062Z,58.10
2018-08-30T02:06:58.301Z,58.70
2018-08-30T02:09:27.335Z,59.00
2018-08-30T02:11:55.575Z,58.60
2018-08-30T02:14:24.625Z,59.00
2018-08-30T02:16:52.888Z,58.90
2018-08-30T02:19:21.122Z,58.80
2018-08-30T02:21:50.148Z,58.60
2018-08-30T02:24:18.409Z,58.60
2018-08-30T02:26:46.651Z,59.10
2018-08-30T02:29:14.916Z,59.10
2018-08-30T02:31:43.179Z,58.60
2018-08-30T02:34:11.434Z,58.50
2018-08-30T02:36:39.726Z,59.10
2018-08-30T02:39:07.962Z,59.00
2018-08-30T02:41:36.254Z,58.80
2018-08-30T02:44:04.499Z,58.50
2018-08-30T02:46:33.524Z,58.50
2018-08-30T02:49:01.801Z,58.40
2018-08-30T02:51:30.039Z,58.50
2018-08-30T02:53:59.043Z,58.20
2018-08-30T02:56:27.287Z,58.10
2018-08-30T02:58:55.559Z,58.20
2018-08-30T03:01:23.787Z,58.30
2018-08-30T03:03:52.046Z,58.60
2018-08-30T03:06:20.301Z,58.80
2018-08-30T03:08:49.331Z,58.90
2018-08-30T03:11:17.573Z,58.80
2018-08-30T03:13:45.847Z,58.30
2018-08-30T03:16:14.841Z,58.10
2018-08-30T03:18:43.115Z,58.10
2018-08-30T03:21:12.118Z,57.70
2018-08-30T03:23:40.365Z,57.60
2018-08-30T03:26:09.398Z,57.60
2018-08-30T03:28:37.653Z,57.60
2018-08-30T03:31:06.035Z,57.80
2018-08-30T03:33:34.208Z,57.30
2018-08-30T03:36:02.478Z,56.60
2018-08-30T03:38:30.740Z,56.20
2018-08-30T03:40:59.751Z,56.80
2018-08-30T03:43:28.010Z,56.70
2018-08-30T03:45:56.275Z,57.80
2018-08-30T03:48:24.574Z,58.50
2018-08-30T03:50:53.581Z,58.90
2018-08-30T03:53:21.851Z,58.80
2018-08-30T03:55:51.070Z,58.40
2018-08-30T03:58:19.329Z,58.40
2018-08-30T04:00:47.593Z,57.70
2018-08-30T04:03:15.867Z,57.30
2018-08-30T04:05:44.097Z,56.80
2018-08-30T04:08:12.365Z,56.60
2018-08-30T04:10:40.625Z,56.80
2018-08-30T04:13:08.861Z,57.20
2018-08-30T04:15:37.111Z,56.90
2018-08-30T04:18:06.129Z,57.70
2018-08-30T04:20:34.394Z,57.70
2018-08-30T04:23:03.402Z,57.60
2018-08-30T04:25:31.666Z,57.60
2018-08-30T04:27:59.911Z,58.50
2018-08-30T04:30:28.178Z,58.70
2018-08-30T04:32:56.451Z,58.50
2018-08-30T04:35:24.713Z,58.00
2018-08-30T04:37:52.954Z,58.40
2018-08-30T04:40:21.266Z,58.00
2018-08-30T04:42:50.339Z,58.60
2018-08-30T04:45:18.538Z,59.30
2018-08-30T04:47:46.797Z,58.60
2018-08-30T04:50:15.129Z,58.50
2018-08-30T04:52:43.319Z,58.40
2018-08-30T04:55:11.565Z,58.20
2018-08-30T04:57:40.593Z,58.20
2018-08-30T05:00:08.854Z,58.10
2018-08-30T05:02:37.106Z,58.60
2018-08-30T05:05:06.139Z,60.00
2018-08-30T05:07:34.375Z,60.00
2018-08-30T05:10:03.406Z,60.10
2018-08-30T05:12:31.641Z,60.10
2018-08-30T05:15:00.687Z,60.70
2018-08-30T05:17:28.925Z,60.60
2018-08-30T05:19:57.941Z,62.10
2018-08-30T05:22:26.199Z,62.10
2018-08-30T05:24:54.470Z,62.90
2018-08-30T05:27:23.493Z,62.40
2018-08-30T05:29:51.782Z,62.30
2018-08-30T05:32:19.992Z,62.50
2018-08-30T05:34:48.263Z,62.20
2018-08-30T05:37:16.515Z,62.20
2018-08-30T05:39:44.750Z,62.90
2018-08-30T05:42:13.014Z,62.10
2018-08-30T05:44:41.291Z,62.50
2018-08-30T05:47:09.528Z,62.80
2018-08-30T05:49:37.784Z,62.60
2018-08-30T05:52:06.034Z,62.70
2018-08-30T05:54:34.406Z,62.30
2018-08-30T05:57:02.694Z,61.90
2018-08-30T05:59:31.671Z,62.30
2018-08-30T06:01:59.941Z,62.30
2018-08-30T06:04:28.188Z,62.20
2018-08-30T06:06:57.206Z,61.70
2018-08-30T06:09:25.490Z,61.70
2018-08-30T06:11:53.734Z,61.10
2018-08-30T06:14:22.751Z,61.20
2018-08-30T06:16:50.999Z,61.10
2018-08-30T06:19:20.014Z,61.10
2018-08-30T06:21:48.307Z,61.10
2018-08-30T06:24:17.314Z,60.80
2018-08-30T06:26:45.604Z,60.80
2018-08-30T06:29:13.861Z,61.40
2018-08-30T06:31:42.850Z,61.70
2018-08-30T06:34:11.105Z,61.10
2018-08-30T06:36:39.391Z,61.10
2018-08-30T06:39:08.043Z,61.20
2018-08-30T06:41:36.257Z,61.10
2018-08-30T06:44:04.512Z,60.90
2018-08-30T06:46:32.774Z,60.80
2018-08-30T06:49:01.848Z,61.20
2018-08-30T06:51:30.020Z,61.10
2018-08-30T06:53:58.309Z,61.00
2018-08-30T06:56:26.630Z,61.80
2018-08-30T06:58:54.818Z,61.10
2018-08-30T07:01:23.061Z,62.10
2018-08-30T07:03:51.293Z,62.00
2018-08-30T07:06:20.323Z,61.10
2018-08-30T07:08:48.566Z,61.10
2018-08-30T07:11:17.595Z,60.10
2018-08-30T07:13:45.867Z,60.00
2018-08-30T07:16:14.106Z,59.90
2018-08-30T07:18:43.131Z,61.00
2018-08-30T07:21:11.456Z,60.30
2018-08-30T07:23:39.663Z,60.20
2018-08-30T07:26:08.690Z,60.70
2018-08-30T07:28:36.960Z,60.70
2018-08-30T07:31:05.199Z,60.50
2018-08-30T07:33:34.212Z,61.10
2018-08-30T07:36:02.469Z,61.10
2018-08-30T07:38:31.498Z,60.80
2018-08-30T07:40:59.743Z,60.80
2018-08-30T07:43:28.007Z,59.90
2018-08-30T07:45:57.010Z,60.20
2018-08-30T07:48:26.068Z,60.00
2018-08-30T07:50:55.161Z,59.20
2018-08-30T07:53:24.134Z,58.30
2018-08-30T07:55:52.370Z,58.30
2018-08-30T07:58:20.638Z,57.80
2018-08-30T08:00:49.671Z,57.10
2018-08-30T08:03:17.926Z,57.10
2018-08-30T08:05:46.244Z,56.80
2018-08-30T08:08:14.483Z,55.80
2018-08-30T08:10:42.723Z,55.40
2018-08-30T08:13:11.746Z,54.90
2018-08-30T08:15:40.002Z,54.90
2018-08-30T08:18:09.006Z,54.00
2018-08-30T08:20:37.282Z,54.00
2018-08-30T08:23:05.527Z,54.60
2018-08-30T08:25:33.796Z,52.70
2018-08-30T08:28:02.082Z,53.90
2018-08-30T08:30:31.092Z,51.00
2018-08-30T08:32:59.358Z,50.90
2018-08-30T08:35:28.366Z,51.10
2018-08-30T08:37:56.638Z,51.10
2018-08-30T08:40:24.878Z,49.10
2018-08-30T08:42:53.147Z,48.80
2018-08-30T08:45:21.397Z,46.80
2018-08-30T08:47:49.761Z,46.60
2018-08-30T08:50:17.921Z,47.40
2018-08-30T08:52:46.184Z,47.50
2018-08-30T08:55:14.491Z,47.80
2018-08-30T08:57:42.714Z,46.00
2018-08-30T09:00:11.849Z,50.00
2018-08-30T09:02:40.085Z,50.60
2018-08-30T09:05:09.094Z,48.90
2018-08-30T09:07:37.382Z,48.90
2018-08-30T09:10:05.603Z,49.10
2018-08-30T09:12:33.837Z,48.10
2018-08-30T09:15:02.112Z,48.10
2018-08-30T09:17:30.359Z,48.60
2018-08-30T09:19:59.485Z,47.30
2018-08-30T09:22:27.727Z,47.30
2018-08-30T09:24:56.734Z,48.40
2018-08-30T09:27:25.316Z,48.40
2018-08-30T09:29:53.569Z,48.90
2018-08-30T09:32:22.590Z,50.20
2018-08-30T09:34:50.853Z,50.30
2018-08-30T09:37:19.101Z,49.90
2018-08-30T09:39:47.373Z,49.90
2018-08-30T09:42:15.611Z,48.90
2018-08-30T09:44:43.915Z,49.70
2018-08-30T09:47:12.165Z,49.50
2018-08-30T09:49:40.452Z,49.80
2018-08-30T09:52:08.706Z,49.20
2018-08-30T09:54:36.967Z,48.30
2018-08-30T09:57:05.420Z,48.00
2018-08-30T09:59:33.503Z,47.50
2018-08-30T10:02:02.516Z,46.70
2018-08-30T10:04:30.824Z,46.70
2018-08-30T10:06:59.013Z,47.50
2018-08-30T10:09:27.299Z,46.90
2018-08-30T10:11:56.333Z,48.20
2018-08-30T10:14:24.579Z,48.20
2018-08-30T10:16:53.606Z,47.10
2018-08-30T10:19:21.855Z,47.00
2018-08-30T10:21:50.114Z,47.40
2018-08-30T10:24:19.134Z,46.80
2018-08-30T10:26:47.412Z,46.80
2018-08-30T10:29:15.649Z,46.80
2018-08-30T10:31:44.674Z,45.80
2018-08-30T10:34:12.912Z,45.80
2018-08-30T10:36:41.182Z,46.90
2018-08-30T10:39:09.430Z,48.00
2018-08-30T10:41:37.739Z,45.20
2018-08-30T10:44:05.958Z,46.20
2018-08-30T10:46:34.210Z,45.80
2018-08-30T10:49:03.242Z,45.00
2018-08-30T10:51:31.478Z,45.00
2018-08-30T10:53:59.747Z,44.80
2018-08-30T10:56:28.765Z,44.90
2018-08-30T10:58:57.033Z,44.90
2018-08-30T11:01:25.290Z,45.00
2018-08-30T11:03:54.316Z,45.10
2018-08-30T11:06:22.556Z,45.20
2018-08-30T11:08:51.602Z,44.20
2018-08-30T11:11:19.907Z,44.20
2018-08-30T11:13:48.166Z,44.40
2018-08-30T11:16:16.423Z,44.30
2018-08-30T11:18:44.678Z,45.40
2018-08-30T11:21:12.934Z,45.10
2018-08-30T11:23:41.209Z,45.10
2018-08-30T11:26:09.473Z,43.60
2018-08-30T11:28:38.490Z,45.00
2018-08-30T11:31:06.747Z,44.80
2018-08-30T11:33:34.996Z,45.00
2018-08-30T11:36:03.275Z,45.10
2018-08-30T11:38:32.300Z,45.00
2018-08-30T11:41:00.545Z,44.90
2018-08-30T11:43:29.653Z,45.10
2018-08-30T11:45:57.849Z,45.10
2018-08-30T11:48:26.113Z,45.00
2018-08-30T11:50:54.381Z,45.30
2018-08-30T11:53:23.407Z,46.00
2018-08-30T11:55:51.735Z,46.00
2018-08-30T11:58:20.007Z,45.30
2018-08-30T12:00:48.288Z,45.30
2018-08-30T12:03:16.490Z,44.30
2018-08-30T12:05:44.749Z,44.40
2018-08-30T12:08:13.807Z,43.00
2018-08-30T12:10:42.060Z,43.10
2018-08-30T12:13:11.037Z,43.10
2018-08-30T12:15:39.281Z,43.10
2018-08-30T12:18:08.327Z,42.00
2018-08-30T12:20:36.631Z,41.90
2018-08-30T12:23:04.824Z,42.80
2018-08-30T12:25:33.871Z,42.40
2018-08-30T12:28:02.153Z,42.50
2018-08-30T12:30:30.412Z,43.60
2018-08-30T12:32:58.698Z,42.60
2018-08-30T12:35:26.995Z,41.50
2018-08-30T12:37:55.360Z,41.60
2018-08-30T12:40:23.665Z,42.00
2018-08-30T12:42:52.736Z,41.90
2018-08-30T12:45:20.841Z,41.90
2018-08-30T12:47:49.890Z,40.90
2018-08-30T12:50:18.281Z,40.80
2018-08-30T12:52:46.518Z,40.80
2018-08-30T12:55:14.773Z,40.70
2018-08-30T12:57:43.069Z,40.60
2018-08-30T13:00:11.318Z,40.10
2018-08-30T13:02:39.643Z,39.50
2018-08-30T13:05:07.939Z,40.80
2018-08-30T13:07:36.175Z,41.80
2018-08-30T13:10:05.467Z,41.80
2018-08-30T13:12:33.744Z,42.60
2018-08-30T13:15:02.081Z,39.50
2018-08-30T13:17:30.453Z,40.50
2018-08-30T13:19:58.636Z,39.80
2018-08-30T13:22:27.746Z,40.00
2018-08-30T13:24:56.771Z,40.30
2018-08-30T13:27:25.047Z,40.20
2018-08-30T13:29:53.339Z,39.10
2018-08-30T13:32:21.647Z,40.80
2018-08-30T13:34:50.048Z,40.50
2018-08-30T13:37:18.271Z,40.00
2018-08-30T13:39:47.224Z,40.40
2018-08-30T13:42:15.694Z,40.50
2018-08-30T13:44:43.925Z,39.50
2018-08-30T13:47:12.068Z,38.00
2018-08-30T13:49:40.952Z,39.60
2018-08-30T13:52:09.499Z,39.70
2018-08-30T13:54:37.520Z,38.50
2018-08-30T13:57:05.841Z,39.10
2018-08-30T13:59:34.806Z,38.40
2018-08-30T14:02:02.739Z,38.90
2018-08-30T14:04:31.652Z,40.50
2018-08-30T14:06:59.940Z,40.50
2018-08-30T14:09:28.205Z,39.50
2018-08-30T14:11:56.661Z,40.30
2018-08-30T14:14:25.459Z,39.90
2018-08-30T14:16:53.477Z,39.90
2018-08-30T14:19:22.691Z,39.60
2018-08-30T14:21:50.782Z,39.60
2018-08-30T14:24:19.019Z,41.30
2018-08-30T14:26:47.453Z,40.90
2018-08-30T14:29:15.711Z,40.50
2018-08-30T14:31:44.072Z,40.60
2018-08-30T14:34:12.253Z,40.40
2018-08-30T14:36:40.509Z,40.40
2018-08-30T14:39:08.869Z,41.10
2018-08-30T14:41:37.094Z,41.70
2018-08-30T14:44:06.088Z,44.50
2018-08-30T14:46:34.386Z,44.50
2018-08-30T14:49:02.670Z,45.70
2018-08-30T14:51:31.834Z,46.60
2018-08-30T14:54:00.135Z,46.60
2018-08-30T14:56:28.323Z,46.70
2018-08-30T14:58:56.536Z,47.20
2018-08-30T15:01:24.817Z,47.70
2018-08-30T15:03:53.095Z,47.50
2018-08-30T15:06:21.383Z,48.00
2018-08-30T15:08:49.701Z,49.10
2018-08-30T15:11:17.931Z,50.30
2018-08-30T15:13:46.551Z,52.70
2018-08-30T15:16:15.576Z,54.70
2018-08-30T15:18:43.857Z,54.50
2018-08-30T15:21:13.407Z,52.80
2018-08-30T15:23:41.769Z,54.70
2018-08-30T15:26:10.748Z,54.20
2018-08-30T15:34:40.767Z,52.40
2018-08-30T15:37:25.148Z,51.80
2018-08-30T15:40:08.579Z,55.60
2018-08-30T15:42:47.752Z,53.80
2018-08-30T15:45:23.461Z,54.20
2018-08-30T15:48:00.253Z,54.80
2018-08-30T15:50:35.963Z,57.90
2018-08-30T15:59:21.873Z,52.70
2018-08-30T16:01:53.239Z,56.60
2018-08-30T16:04:26.028Z,57.80
2018-08-30T16:06:56.968Z,57.80
2018-08-30T16:09:41.483Z,55.10
2018-08-30T16:15:25.970Z,54.40
2018-08-30T16:18:00.382Z,56.80
2018-08-30T16:20:34.662Z,56.60
2018-08-30T16:23:09.712Z,56.30
2018-08-30T16:25:43.895Z,56.30
2018-08-30T16:28:18.255Z,56.40
2018-08-30T16:30:52.451Z,56.80
2018-08-30T16:33:26.795Z,56.80
2018-08-30T16:35:55.074Z,56.40
2018-08-30T16:38:23.325Z,55.90
2018-08-30T16:40:51.590Z,56.40
2018-08-30T16:43:19.879Z,56.90
2018-08-30T16:45:48.163Z,57.00
2018-08-30T16:48:17.183Z,57.50
2018-08-30T16:50:46.594Z,57.40
2018-08-30T16:53:14.920Z,57.40
2018-08-30T16:55:43.211Z,57.40
2018-08-30T16:58:11.414Z,57.30
2018-08-30T17:00:39.673Z,57.40
2018-08-30T17:03:08.695Z,57.40
2018-08-30T17:05:36.948Z,57.40
2018-08-30T17:08:05.219Z,57.00
2018-08-30T17:10:33.482Z,56.90
2018-08-30T17:13:02.489Z,56.90
2018-08-30T17:15:30.754Z,56.90
2018-08-30T17:17:59.046Z,55.10
2018-08-30T17:20:27.327Z,56.10
2018-08-30T17:22:55.603Z,55.90
2018-08-30T17:25:23.962Z,55.60
2018-08-30T17:27:52.115Z,55.50
2018-08-30T17:30:21.455Z,54.50
2018-08-30T17:32:49.709Z,54.30
2018-08-30T17:35:18.006Z,55.10
2018-08-30T17:37:46.265Z,54.70
2018-08-30T17:40:14.609Z,54.60
2018-08-30T17:42:42.874Z,54.20
2018-08-30T17:45:11.189Z,55.00
2018-08-30T17:47:39.399Z,53.70
2018-08-30T17:50:07.659Z,53.50
2018-08-30T17:52:35.935Z,54.00
2018-08-30T17:55:04.191Z,53.40
2018-08-30T17:57:32.445Z,53.50
2018-08-30T18:00:01.474Z,52.60
2018-08-30T18:02:29.727Z,52.60
2018-08-30T18:04:57.976Z,53.90
2018-08-30T18:07:27.023Z,53.10
2018-08-30T18:09:55.320Z,53.00
2018-08-30T18:12:23.602Z,52.40
2018-08-30T18:14:51.797Z,53.60
2018-08-30T18:17:20.830Z,53.80
2018-08-30T18:19:49.086Z,53.70
2018-08-30T18:22:17.409Z,55.10
2018-08-30T18:24:45.652Z,55.70
2018-08-30T18:27:14.009Z,56.40
2018-08-30T18:29:43.068Z,56.40
2018-08-30T18:32:11.390Z,56.30
2018-08-30T18:34:39.633Z,57.20
2018-08-30T18:37:07.889Z,57.40
2018-08-30T18:39:36.137Z,57.40
2018-08-30T18:42:04.403Z,57.30
2018-08-30T18:44:32.660Z,58.00
2018-08-30T18:47:01.770Z,57.50
2018-08-30T18:49:30.035Z,57.50
2018-08-30T18:51:58.305Z,58.10
2018-08-30T18:54:27.327Z,57.10
2018-08-30T18:56:55.590Z,57.10
2018-08-30T18:59:23.863Z,56.90
2018-08-30T19:01:52.368Z,57.30
2018-08-30T19:04:20.620Z,56.90
2018-08-30T19:06:49.064Z,57.10
2018-08-30T19:09:18.104Z,57.10
2018-08-30T19:11:46.641Z,57.00
2018-08-30T19:14:14.954Z,57.40
2018-08-30T19:17:02.898Z,57.70
2018-08-30T19:19:31.466Z,57.90
2018-08-30T19:21:59.974Z,58.40
2018-08-30T19:24:28.231Z,58.30
2018-08-30T19:26:56.762Z,58.00
2018-08-30T19:29:26.055Z,58.10
2018-08-30T19:31:55.341Z,58.00
2018-08-30T19:34:23.635Z,58.00
2018-08-30T19:36:52.686Z,57.90
2018-08-30T19:39:20.946Z,57.70
2018-08-30T19:41:49.297Z,58.10
2018-08-30T19:44:20.740Z,58.40
2018-08-30T19:46:49.106Z,58.40
2018-08-30T19:49:17.395Z,59.20
2018-08-30T19:51:46.640Z,58.40
2018-08-30T19:54:14.974Z,58.70
2018-08-30T19:56:43.216Z,58.70
2018-08-30T19:59:11.495Z,59.20
2018-08-30T20:01:39.817Z,59.30
2018-08-30T20:04:08.085Z,59.70
2018-08-30T20:06:36.611Z,60.10
2018-08-30T20:09:04.900Z,59.40
2018-08-30T20:11:33.103Z,59.30
2018-08-30T20:14:02.151Z,59.20
2018-08-30T20:16:30.402Z,59.10
2018-08-30T20:18:58.674Z,59.00
2018-08-30T20:21:26.923Z,59.00
2018-08-30T20:23:56.223Z,59.20
2018-08-30T20:26:25.251Z,59.40
2018-08-30T20:28:53.518Z,59.40
2018-08-30T20:31:22.094Z,59.40
2018-08-30T20:33:50.344Z,59.50
2018-08-30T20:36:19.358Z,59.40
2018-08-30T20:38:47.646Z,59.30
2018-08-30T20:41:15.933Z,59.40
2018-08-30T20:43:44.162Z,59.50
2018-08-30T20:46:13.173Z,59.60
2018-08-30T20:48:41.454Z,59.60
2018-08-30T20:51:09.694Z,59.80
2018-08-30T20:53:38.734Z,60.00
2018-08-30T20:56:30.908Z,60.00
2018-08-30T20:58:59.172Z,60.00
2018-08-30T21:01:27.436Z,59.70
2018-08-30T21:03:55.759Z,59.80
2018-08-30T21:06:24.828Z,59.90
2018-08-30T21:08:53.119Z,59.90
2018-08-30T21:11:21.346Z,60.10
2018-08-30T21:13:49.755Z,60.70
2018-08-30T21:16:18.028Z,60.30
2018-08-30T21:18:46.292Z,60.30
2018-08-30T21:21:14.558Z,60.60
2018-08-30T21:23:43.578Z,60.20
2018-08-30T21:26:12.369Z,60.20
2018-08-30T21:28:41.388Z,60.20
2018-08-30T21:31:09.670Z,60.30
2018-08-30T21:33:37.985Z,60.60
2018-08-30T21:36:06.219Z,60.70
2018-08-30T21:38:34.498Z,61.00
2018-08-30T21:41:02.751Z,60.70
2018-08-30T21:43:31.798Z,60.80
2018-08-30T21:46:00.040Z,60.80
2018-08-30T21:48:28.302Z,60.30
2018-08-30T21:50:56.577Z,60.60
2018-08-30T21:53:24.845Z,60.40
2018-08-30T21:55:53.897Z,60.50
2018-08-30T21:58:22.154Z,60.50
2018-08-30T22:00:50.414Z,60.70
2018-08-30T22:03:18.657Z,60.80
2018-08-30T22:05:46.941Z,60.90
2018-08-30T22:08:15.963Z,60.40
2018-08-30T22:10:44.243Z,60.40
2018-08-30T22:13:12.547Z,60.20
2018-08-30T22:15:40.781Z,60.50
2018-08-30T22:18:09.041Z,60.50
2018-08-30T22:20:37.362Z,60.70
2018-08-30T22:23:05.638Z,60.50
2018-08-30T22:25:33.884Z,60.90
2018-08-30T22:28:02.183Z,60.20
2018-08-30T22:30:30.422Z,60.10
2018-08-30T22:32:58.700Z,60.10
2018-08-30T22:35:26.957Z,60.50
2018-08-30T22:37:56.007Z,60.70
2018-08-30T22:40:24.340Z,60.60
2018-08-30T22:42:52.506Z,60.80
2018-08-30T22:45:20.787Z,60.60
2018-08-30T22:47:49.057Z,60.60
2018-08-30T22:50:18.065Z,61.40
2018-08-30T22:52:46.343Z,60.80
2018-08-30T22:55:14.598Z,60.90
2018-08-30T22:57:42.896Z,60.80
2018-08-30T23:00:11.914Z,60.70
2018-08-30T23:02:40.186Z,60.70
2018-08-30T23:05:08.426Z,60.90
2018-08-30T23:07:36.697Z,61.30
2018-08-30T23:10:04.970Z,61.80
2018-08-30T23:12:33.212Z,61.70
2018-08-30T23:15:01.477Z,61.60
2018-08-30T23:17:29.733Z,61.60
2018-08-30T23:19:58.001Z,61.50
2018-08-30T23:22:26.253Z,61.20
2018-08-30T23:24:54.531Z,60.90
2018-08-30T23:27:22.787Z,60.80
2018-08-30T23:29:51.821Z,57.20
2018-08-30T23:32:20.070Z,57.00
2018-08-30T23:34:48.341Z,56.00
2018-08-30T23:37:16.584Z,54.80
2018-08-30T23:39:44.834Z,54.70
2018-08-30T23:42:13.102Z,53.70
2018-08-30T23:44:41.353Z,52.70
2018-08-30T23:47:09.626Z,51.80
2018-08-30T23:49:37.858Z,52.00
2018-08-30T23:52:06.124Z,52.70
2018-08-30T23:54:34.386Z,54.30
2018-08-30T23:57:02.643Z,52.70
2018-08-30T23:59:57.612Z,52.70
